Time;durP1;ratioP1;P1;durP2;ratioP2;P2;SDS_P1;SDS_P2;PMS_P1;PMS_P2;Temp;Humidity;BMP_temperature;BMP_pressure;BME280_temperature;BME280_humidity;BME280_pressure;Samples;Min_cycle;Max_cycle;Signal;HPM_P1;HPM_P2
2020/12/30 00:02:11;;;;;;;42.78;19.05;;;;;;;1.81;98.57;99449.16;4979203;28;20050;-64
2020/12/30 00:04:37;;;;;;;43.97;18.80;;;;;;;1.76;98.36;99457.47;4981967;28;20055;-64
2020/12/30 00:07:03;;;;;;;40.42;18.55;;;;;;;1.74;99.16;99452.28;4982660;28;20138;-64
2020/12/30 00:09:29;;;;;;;38.10;18.02;;;;;;;1.73;99.24;99449.75;4982700;28;20050;-65
2020/12/30 00:11:55;;;;;;;42.10;19.95;;;;;;;1.70;99.03;99457.94;4984379;28;20109;-65
2020/12/30 00:14:21;;;;;;;43.20;19.10;;;;;;;1.73;99.08;99453.22;4983838;28;20423;-65
2020/12/30 00:16:47;;;;;;;43.58;20.55;;;;;;;1.74;98.74;99459.41;4983190;28;20113;-65
2020/12/30 00:19:13;;;;;;;44.55;18.73;;;;;;;1.80;99.06;99456.28;4981254;28;20058;-64
2020/12/30 00:21:39;;;;;;;39.35;18.98;;;;;;;1.84;98.88;99463.06;4982908;28;20530;-64
2020/12/30 00:24:05;;;;;;;38.70;18.48;;;;;;;1.85;98.51;99467.38;4981527;28;20431;-65
2020/12/30 00:26:31;;;;;;;41.88;17.85;;;;;;;1.92;99.17;99459.81;4983986;28;20100;-65
2020/12/30 00:28:57;;;;;;;43.95;17.67;;;;;;;1.94;98.98;99457.88;4983336;28;20061;-65
2020/12/30 00:31:24;;;;;;;39.88;19.95;;;;;;;1.98;98.79;99462.00;4983693;28;20452;-66
2020/12/30 00:33:50;;;;;;;37.55;18.27;;;;;;;1.92;98.98;99457.19;4983444;28;20081;-65
2020/12/30 00:36:16;;;;;;;39.10;19.52;;;;;;;1.89;98.16;99457.41;4982963;28;20506;-65
2020/12/30 00:38:42;;;;;;;41.45;19.40;;;;;;;1.88;98.46;99458.34;4984076;28;20089;-64
2020/12/30 00:41:12;;;;;;;44.28;18.92;;;;;;;1.86;98.37;99471.75;4982995;28;20090;-65
2020/12/30 00:43:38;;;;;;;45.97;19.45;;;;;;;1.85;97.91;99471.84;4982742;28;20046;-65
2020/12/30 00:46:04;;;;;;;40.60;18.60;;;;;;;1.84;98.33;99470.16;4983100;28;20081;-65
2020/12/30 00:48:31;;;;;;;45.88;18.98;;;;;;;1.83;98.87;99464.00;4981667;28;20480;-65
2020/12/30 00:50:57;;;;;;;45.95;20.33;;;;;;;1.81;98.10;99473.03;4981533;28;20097;-65
2020/12/30 00:53:23;;;;;;;45.83;20.38;;;;;;;1.79;99.05;99467.00;4981986;28;20082;-64
2020/12/30 00:55:49;;;;;;;41.47;19.35;;;;;;;1.82;98.45;99472.94;4982536;28;20101;-66
2020/12/30 00:58:15;;;;;;;44.28;18.45;;;;;;;1.80;98.05;99468.72;4982556;28;20455;-65
2020/12/30 01:00:41;;;;;;;47.42;19.40;;;;;;;1.79;98.58;99467.00;4983324;28;20063;-65
2020/12/30 01:03:07;;;;;;;44.03;18.42;;;;;;;1.78;98.23;99470.63;4982050;28;20073;-65
2020/12/30 01:05:33;;;;;;;45.33;19.38;;;;;;;1.77;98.42;99471.56;4983520;28;20077;-65
2020/12/30 01:07:59;;;;;;;38.08;18.02;;;;;;;1.79;99.10;99474.97;4981777;28;20054;-65
2020/12/30 01:10:25;;;;;;;36.85;17.60;;;;;;;1.84;98.19;99471.03;4982755;28;20047;-65
2020/12/30 01:12:51;;;;;;;42.97;18.58;;;;;;;1.79;98.18;99477.63;4981304;28;20061;-65
2020/12/30 01:15:17;;;;;;;37.78;17.52;;;;;;;1.79;98.99;99475.81;4983062;28;20443;-65
2020/12/30 01:17:43;;;;;;;36.42;18.50;;;;;;;1.72;98.32;99483.41;4985433;28;20451;-65
2020/12/30 01:20:09;;;;;;;38.35;17.73;;;;;;;1.67;98.95;99488.19;4999972;23;20065;-65
2020/12/30 01:22:36;;;;;;;40.92;20.52;;;;;;;1.63;98.55;99489.34;4982236;28;20473;-65
2020/12/30 01:25:02;;;;;;;36.67;17.02;;;;;;;1.67;99.00;99496.13;4982717;28;20361;-65
2020/12/30 01:27:28;;;;;;;37.50;16.42;;;;;;;1.65;99.14;99492.75;4982034;28;20054;-65
2020/12/30 01:29:54;;;;;;;38.85;17.48;;;;;;;1.66;98.78;99493.59;4980466;28;20055;-65
2020/12/30 01:32:19;;;;;;;32.80;16.35;;;;;;;1.68;99.01;99503.13;4980433;28;20125;-64
2020/12/30 01:34:45;;;;;;;35.70;16.92;;;;;;;1.72;98.93;99501.97;4979666;28;20501;-64
2020/12/30 01:37:11;;;;;;;37.17;15.75;;;;;;;1.75;98.48;99507.03;4979939;28;20510;-64
2020/12/30 01:39:38;;;;;;;31.95;15.27;;;;;;;1.79;98.83;99506.81;4981256;28;20066;-64
2020/12/30 01:42:04;;;;;;;29.10;14.95;;;;;;;1.83;98.81;99505.63;4980027;28;20054;-65
2020/12/30 01:44:30;;;;;;;28.10;13.23;;;;;;;1.87;98.74;99518.53;4979892;28;20426;-63
2020/12/30 01:46:57;;;;;;;30.30;14.77;;;;;;;1.85;98.76;99504.53;4981393;28;20491;-65
2020/12/30 01:49:24;;;;;;;27.45;12.73;;;;;;;1.87;98.29;99507.06;4980381;28;20059;-65
2020/12/30 01:51:53;;;;;;;26.88;11.43;;;;;;;1.93;98.58;99519.91;4981058;28;20561;-65
2020/12/30 01:54:19;;;;;;;22.42;11.23;;;;;;;1.93;99.10;99525.22;4980949;28;20113;-64
2020/12/30 01:59:17;;;;;;;18.75;10.90;;;;;;;1.91;98.39;99524.47;4989124;23;20066;-64
2020/12/30 02:01:47;;;;;;;21.27;11.18;;;;;;;1.90;98.65;99533.41;4979887;28;20062;-64
2020/12/30 02:04:15;;;;;;;;;;;;;;;1.96;98.92;99538.25;4980126;28;20059;-65
2020/12/30 02:06:41;;;;;;;21.77;10.73;;;;;;;1.95;98.92;99530.41;4979154;28;19925;-64
2020/12/30 02:09:07;;;;;;;20.20;10.15;;;;;;;1.96;98.85;99540.91;4979951;28;20059;-65
2020/12/30 02:11:34;;;;;;;18.75;9.48;;;;;;;1.97;98.31;99542.56;4980731;28;20418;-64
2020/12/30 02:14:02;;;;;;;20.42;10.15;;;;;;;1.94;98.33;99534.84;4977747;28;20043;-65
2020/12/30 02:16:29;;;;;;;23.20;10.77;;;;;;;1.98;98.02;99538.97;4980458;28;20058;-64
2020/12/30 02:18:55;;;;;;;25.27;11.07;;;;;;;1.93;97.85;99549.09;4980115;28;20058;-64
2020/12/30 02:21:21;;;;;;;18.90;9.98;;;;;;;1.93;98.80;99538.47;4980060;28;20062;-64
2020/12/30 02:23:50;;;;;;;21.90;10.35;;;;;;;1.93;97.80;99539.31;4979091;28;20050;-64
2020/12/30 02:26:17;;;;;;;20.95;10.63;;;;;;;1.92;98.57;99536.78;4980077;28;20050;-64
2020/12/30 02:28:43;;;;;;;19.88;10.55;;;;;;;1.89;98.29;99542.31;4978513;28;20089;-65
2020/12/30 02:31:09;;;;;;;19.75;10.65;;;;;;;1.92;98.00;99539.44;4978764;28;20043;-65
2020/12/30 02:33:35;;;;;;;20.75;11.55;;;;;;;1.90;98.76;99538.72;4977248;28;20054;-64
2020/12/30 02:36:01;;;;;;;20.98;10.55;;;;;;;1.94;98.84;99540.16;4979980;28;20138;-64
2020/12/30 02:38:27;;;;;;;22.50;10.20;;;;;;;1.97;98.40;99537.25;4979604;28;20055;-64
2020/12/30 02:40:59;;;;;;;18.55;10.02;;;;;;;1.94;98.17;99537.50;4979049;28;20097;-63
2020/12/30 02:43:26;;;;;;;18.92;9.85;;;;;;;1.89;97.90;99535.19;4977659;28;20046;-64
2020/12/30 02:45:52;;;;;;;21.90;10.10;;;;;;;1.85;98.54;99535.53;4980492;28;20046;-64
2020/12/30 02:48:18;;;;;;;20.77;10.13;;;;;;;1.80;98.47;99532.38;4978609;28;20518;-63
2020/12/30 02:50:44;;;;;;;21.85;10.30;;;;;;;1.81;98.62;99534.06;4979090;28;20054;-63
2020/12/30 02:53:10;;;;;;;26.80;10.63;;;;;;;1.73;99.25;99532.81;4977017;28;20074;-63
2020/12/30 02:55:36;;;;;;;24.50;10.25;;;;;;;1.72;99.23;99533.78;4977138;28;20051;-64
2020/12/30 02:58:01;;;;;;;22.80;10.90;;;;;;;1.70;99.39;99541.00;4968195;28;20365;-63
2020/12/30 03:00:28;;;;;;;24.33;11.95;;;;;;;1.68;99.27;99544.72;4980266;28;20077;-64
2020/12/30 03:02:54;;;;;;;26.10;11.38;;;;;;;1.66;98.81;99544.81;4977553;28;20376;-64
2020/12/30 03:05:20;;;;;;;25.42;12.00;;;;;;;1.68;99.24;99540.28;4979427;28;20057;-63
2020/12/30 03:07:47;;;;;;;24.88;10.82;;;;;;;1.65;99.60;99553.75;4979067;28;20042;-63
2020/12/30 03:10:13;;;;;;;24.55;10.82;;;;;;;1.57;99.66;99554.28;4979156;28;20150;-64
2020/12/30 03:12:39;;;;;;;24.77;11.23;;;;;;;1.50;99.62;99546.91;4979217;28;20047;-64
2020/12/30 03:15:05;;;;;;;30.17;12.88;;;;;;;1.37;99.43;99539.84;4977696;28;20054;-63
2020/12/30 03:17:31;;;;;;;24.42;10.98;;;;;;;1.32;99.39;99549.91;4978186;28;20062;-64
2020/12/30 03:19:57;;;;;;;29.15;14.13;;;;;;;1.25;99.46;99540.69;4978069;28;20051;-64
2020/12/30 03:22:23;;;;;;;32.42;14.13;;;;;;;1.25;99.88;99538.03;4977251;28;20408;-63
2020/12/30 03:24:49;;;;;;;31.27;13.85;;;;;;;1.22;99.57;99541.78;4978519;28;20054;-63
2020/12/30 03:27:15;;;;;;;34.25;14.05;;;;;;;1.17;99.42;99537.75;4977787;28;20054;-63
2020/12/30 03:29:41;;;;;;;32.28;13.93;;;;;;;1.13;99.60;99544.22;4980701;28;20057;-64
2020/12/30 03:32:07;;;;;;;36.58;15.52;;;;;;;1.13;100.00;99544.22;4977253;28;20408;-64
2020/12/30 03:34:34;;;;;;;36.15;15.75;;;;;;;1.12;99.93;99542.53;4978779;28;20554;-63
2020/12/30 03:40:02;;;;;;;41.50;16.45;;;;;;;1.09;100.00;99545.38;5002021;23;20113;-64
2020/12/30 03:42:28;;;;;;;35.70;15.88;;;;;;;1.10;100.00;99547.09;4956581;28;20039;-63
2020/12/30 03:44:54;;;;;;;37.58;15.77;;;;;;;1.04;100.00;99551.84;4959475;28;20110;-64
2020/12/30 03:47:20;;;;;;;44.17;17.70;;;;;;;1.05;100.00;99558.84;4958451;28;20133;-64
2020/12/30 03:49:48;;;;;;;44.22;17.88;;;;;;;1.04;100.00;99559.81;4958650;28;20519;-64
2020/12/30 03:52:14;;;;;;;38.92;16.73;;;;;;;1.02;100.00;99559.06;4959070;28;20588;-63
2020/12/30 03:54:40;;;;;;;41.63;17.73;;;;;;;1.03;100.00;99567.84;4959589;28;20047;-65
2020/12/30 03:57:05;;;;;;;49.95;17.15;;;;;;;1.08;100.00;99567.56;4957506;28;20078;-64
2020/12/30 04:01:59;;;;;;;39.65;17.08;;;;;;;1.04;100.00;99574.88;4948867;23;20077;-64
2020/12/30 04:04:25;;;;;;;42.65;17.73;;;;;;;1.03;100.00;99571.38;4977925;28;20050;-63
2020/12/30 04:06:51;;;;;;;48.25;18.27;;;;;;;0.95;100.00;99573.69;4977709;28;20053;-64
2020/12/30 04:09:17;;;;;;;39.67;17.48;;;;;;;0.93;100.00;99574.75;4978313;28;20050;-63
2020/12/30 04:11:43;;;;;;;43.90;18.45;;;;;;;0.95;100.00;99571.06;4978875;28;20503;-64
2020/12/30 04:14:09;;;;;;;43.22;18.00;;;;;;;0.91;100.00;99574.84;4977579;28;20112;-64
2020/12/30 04:16:35;;;;;;;37.50;18.15;;;;;;;0.83;100.00;99569.25;4978306;28;20134;-64
2020/12/30 04:19:01;;;;;;;41.50;17.95;;;;;;;0.74;100.00;99575.16;4976877;28;20385;-64
2020/12/30 04:21:27;;;;;;;41.63;19.38;;;;;;;0.68;100.00;99569.34;4979214;28;20051;-63
2020/12/30 04:23:54;;;;;;;43.75;18.92;;;;;;;0.68;100.00;99572.00;4979281;28;20059;-63
2020/12/30 04:26:21;;;;;;;54.67;20.92;;;;;;;0.63;100.00;99568.84;4978419;28;20461;-64
2020/12/30 04:28:47;;;;;;;49.20;22.00;;;;;;;0.58;100.00;99570.94;4979624;28;20069;-63
2020/12/30 04:31:15;;;;;;;53.15;19.92;;;;;;;0.54;100.00;99571.25;4976990;28;20042;-63
2020/12/30 04:33:41;;;;;;;53.85;22.75;;;;;;;0.52;100.00;99566.91;4978171;28;20102;-63
2020/12/30 04:36:08;;;;;;;60.90;23.10;;;;;;;0.52;100.00;99569.53;4979357;28;20050;-64
2020/12/30 04:38:35;;;;;;;58.65;22.13;;;;;;;0.52;100.00;99574.00;4978694;28;20057;-63
2020/12/30 04:41:03;;;;;;;59.58;21.92;;;;;;;0.52;100.00;99577.47;4976904;28;20039;-63
2020/12/30 04:43:31;;;;;;;54.40;21.77;;;;;;;0.54;100.00;99576.53;4979694;28;20062;-64
2020/12/30 04:45:59;;;;;;;57.40;23.25;;;;;;;0.54;100.00;99579.19;4979565;28;20050;-64
2020/12/30 04:48:26;;;;;;;61.47;23.85;;;;;;;0.53;100.00;99588.94;4978314;28;20043;-62
2020/12/30 04:50:52;;;;;;;67.18;24.85;;;;;;;0.51;100.00;99590.81;4978601;28;20506;-63
2020/12/30 04:53:21;;;;;;;65.88;25.23;;;;;;;0.54;100.00;99590.63;4980092;28;20054;-63
2020/12/30 04:55:48;;;;;;;59.70;23.80;;;;;;;0.58;100.00;99596.56;4982059;28;20050;-63
2020/12/30 04:58:16;;;;;;;71.03;27.30;;;;;;;0.56;100.00;99594.03;5001211;23;20043;-63
2020/12/30 05:00:43;;;;;;;79.28;27.90;;;;;;;0.53;100.00;99596.88;4983564;28;20426;-65
2020/12/30 05:03:10;;;;;;;67.68;26.65;;;;;;;0.53;100.00;99599.53;4983686;28;20038;-63
2020/12/30 05:05:38;;;;;;;83.15;32.75;;;;;;;0.56;100.00;99609.91;4983166;28;20043;-63
2020/12/30 05:08:07;;;;;;;76.80;29.88;;;;;;;0.55;100.00;99594.97;4982482;28;20498;-63
2020/12/30 05:10:34;;;;;;;71.70;27.90;;;;;;;0.55;100.00;99605.56;4983058;28;20569;-63
2020/12/30 05:13:00;;;;;;;76.70;29.58;;;;;;;0.53;100.00;99604.81;4982876;28;20062;-63
2020/12/30 05:15:26;;;;;;;81.15;28.95;;;;;;;0.54;100.00;99609.16;4983174;28;20050;-63
2020/12/30 05:17:54;;;;;;;73.90;27.95;;;;;;;0.49;100.00;99616.56;4981998;28;20531;-63
2020/12/30 05:20:23;;;;;;;81.38;29.02;;;;;;;0.53;100.00;99610.13;4983752;28;20054;-65
2020/12/30 05:22:50;;;;;;;82.63;30.77;;;;;;;0.55;100.00;99607.38;4980941;28;20050;-63
2020/12/30 05:25:16;;;;;;;83.60;31.00;;;;;;;0.58;100.00;99615.94;4982148;28;20051;-63
2020/12/30 05:27:43;;;;;;;89.60;34.00;;;;;;;0.61;100.00;99618.38;4984201;28;20051;-63
2020/12/30 05:30:09;;;;;;;92.28;32.90;;;;;;;0.67;100.00;99625.06;4981819;28;20061;-63
2020/12/30 05:32:37;;;;;;;91.93;32.95;;;;;;;0.75;100.00;99619.25;4984521;28;20055;-63
2020/12/30 05:35:04;;;;;;;94.60;33.10;;;;;;;0.68;100.00;99624.97;4981112;28;20042;-63
2020/12/30 05:37:32;;;;;;;90.80;33.83;;;;;;;0.72;100.00;99620.28;4982532;28;20164;-63
2020/12/30 05:39:58;;;;;;;91.43;35.55;;;;;;;0.76;100.00;99620.94;4982919;28;20396;-63
2020/12/30 05:42:24;;;;;;;91.35;33.33;;;;;;;0.75;100.00;99619.25;4983426;28;20079;-63
2020/12/30 05:44:52;;;;;;;88.55;32.97;;;;;;;0.75;100.00;99617.47;4983329;28;20485;-63
2020/12/30 05:47:19;;;;;;;85.20;31.38;;;;;;;0.74;100.00;99623.72;4981916;28;20057;-63
2020/12/30 05:49:47;;;;;;;87.18;33.40;;;;;;;0.88;100.00;99636.00;4983450;28;20050;-63
2020/12/30 05:52:15;;;;;;;91.15;33.78;;;;;;;0.86;100.00;99633.47;4982049;28;20050;-63
2020/12/30 05:54:52;;;;;;;83.03;33.50;;;;;;;0.87;100.00;99632.50;4981229;28;20460;-63
2020/12/30 05:57:19;;;;;;;101.68;34.88;;;;;;;0.97;100.00;99634.53;4979668;28;20047;-65
2020/12/30 05:59:46;;;;;;;87.28;35.00;;;;;;;1.02;100.00;99643.03;4982521;28;20093;-63
2020/12/30 06:02:12;;;;;;;91.50;35.22;;;;;;;1.02;100.00;99637.72;4981175;28;20373;-63
2020/12/30 06:04:38;;;;;;;85.30;33.40;;;;;;;1.04;100.00;99641.94;4982041;28;20051;-63
2020/12/30 06:07:05;;;;;;;84.60;33.83;;;;;;;1.09;100.00;99648.72;4980485;28;20480;-66
2020/12/30 06:09:38;;;;;;;86.03;32.45;;;;;;;1.12;100.00;99645.88;4980822;28;20084;-63
2020/12/30 06:12:06;;;;;;;76.88;30.40;;;;;;;1.12;100.00;99648.53;4982192;28;20050;-65
2020/12/30 06:14:34;;;;;;;84.93;32.55;;;;;;;1.10;100.00;99651.28;4981750;28;20082;-65
2020/12/30 06:17:02;;;;;;;78.22;30.92;;;;;;;1.11;100.00;99654.78;4982287;28;20062;-63
2020/12/30 06:19:28;;;;;;;76.20;31.20;;;;;;;1.03;100.00;99664.13;4982688;28;20053;-63
2020/12/30 06:21:54;;;;;;;79.00;30.63;;;;;;;0.98;100.00;99666.22;4983407;28;20051;-63
2020/12/30 06:24:21;;;;;;;74.15;29.08;;;;;;;1.01;100.00;99663.34;4982341;28;20066;-63
2020/12/30 06:26:47;;;;;;;68.57;28.55;;;;;;;0.91;100.00;99667.56;4981489;28;20055;-63
2020/12/30 06:29:15;;;;;;;71.90;31.33;;;;;;;0.83;100.00;99675.22;4980569;28;20077;-63
2020/12/30 06:31:46;;;;;;;66.78;26.90;;;;;;;0.79;100.00;99677.19;4981926;28;20129;-63
2020/12/30 06:34:13;;;;;;;81.53;31.85;;;;;;;0.79;100.00;99684.31;4980975;28;20105;-63
2020/12/30 06:36:39;;;;;;;65.47;27.90;;;;;;;0.77;100.00;99681.75;4980502;28;20094;-63
2020/12/30 06:39:23;;;;;;;70.55;28.23;;;;;;;0.74;100.00;99689.06;4980281;28;20488;-63
2020/12/30 06:41:57;;;;;;;75.35;28.83;;;;;;;0.70;100.00;99689.25;4981267;28;20364;-63
2020/12/30 06:44:39;;;;;;;78.22;29.35;;;;;;;0.73;100.00;99690.03;4980261;28;20105;-63
2020/12/30 06:47:06;;;;;;;70.20;29.30;;;;;;;0.74;100.00;99697.00;4980483;28;20054;-63
2020/12/30 06:49:32;;;;;;;80.47;29.23;;;;;;;0.76;100.00;99695.09;4981980;28;20053;-63
2020/12/30 06:51:58;;;;;;;75.30;29.35;;;;;;;0.80;100.00;99707.19;4982309;28;20054;-63
2020/12/30 06:54:45;;;;;;;72.75;29.65;;;;;;;0.71;100.00;99708.66;4980486;28;20046;-63
2020/12/30 06:57:36;;;;;;;70.50;28.80;;;;;;;0.87;100.00;99711.16;4981095;28;20085;-65
2020/12/30 07:00:38;;;;;;;69.65;28.13;;;;;;;0.74;100.00;99712.88;4981122;28;20082;-65
2020/12/30 07:03:17;;;;;;;75.30;28.17;;;;;;;0.67;100.00;99723.06;4902172;29;20139;-65
2020/12/30 07:05:44;;;;;;;74.20;28.45;;;;;;;0.65;100.00;99723.16;4903439;29;20048;-63
2020/12/30 07:08:10;;;;;;;65.15;27.23;;;;;;;0.62;100.00;99722.50;4945822;28;20046;-63
2020/12/30 07:10:41;;;;;;;68.20;27.42;;;;;;;0.66;100.00;99727.50;4982926;28;20050;-63
2020/12/30 07:13:08;;;;;;;63.13;27.88;;;;;;;0.70;100.00;99728.97;4978547;28;20047;-64
2020/12/30 07:15:34;;;;;;;71.53;28.80;;;;;;;0.76;100.00;99733.03;4982928;28;20042;-63
2020/12/30 07:18:04;;;;;;;67.88;26.95;;;;;;;0.81;100.00;99727.41;4981520;28;20053;-63
2020/12/30 07:20:38;;;;;;;;;;;;;;;0.79;100.00;99738.13;4981325;28;20073;-63
2020/12/30 07:23:07;;;;;;;70.60;27.77;;;;;;;0.77;100.00;99733.91;4979933;28;19929;-63
2020/12/30 07:25:33;;;;;;;62.42;24.27;;;;;;;0.70;100.00;99736.94;4982444;28;20038;-63
2020/12/30 07:28:01;;;;;;;59.85;25.98;;;;;;;0.73;100.00;99743.00;4981223;28;20101;-63
2020/12/30 07:30:27;;;;;;;70.03;25.33;;;;;;;0.68;100.00;99743.28;4980284;28;20543;-63
2020/12/30 07:32:54;;;;;;;60.92;25.35;;;;;;;0.64;100.00;99739.97;4978934;28;20074;-63
2020/12/30 07:35:21;;;;;;;66.38;26.90;;;;;;;0.64;100.00;99750.56;4980602;28;20053;-63
2020/12/30 07:37:50;;;;;;;74.82;25.95;;;;;;;0.65;100.00;99751.44;4980677;28;20066;-63
2020/12/30 07:40:16;;;;;;;59.05;25.58;;;;;;;0.67;100.00;99745.06;4979402;28;20062;-63
2020/12/30 07:42:42;;;;;;;65.00;24.40;;;;;;;0.73;100.00;99753.59;4979973;28;20377;-63
2020/12/30 07:45:09;;;;;;;77.45;29.00;;;;;;;0.69;100.00;99753.78;4978907;28;20474;-63
2020/12/30 07:47:35;;;;;;;66.82;27.65;;;;;;;0.78;100.00;99756.75;4970899;28;20178;-65
2020/12/30 07:50:01;;;;;;;82.40;28.90;;;;;;;0.71;100.00;99761.63;4980235;28;20055;-65
2020/12/30 07:52:27;;;;;;;64.25;26.48;;;;;;;0.73;100.00;99764.19;4981517;28;20051;-65
2020/12/30 07:54:53;;;;;;;76.03;26.30;;;;;;;0.68;100.00;99767.13;4979590;28;20051;-65
2020/12/30 07:57:19;;;;;;;72.75;27.05;;;;;;;0.71;100.00;99772.22;4980209;28;20110;-65
2020/12/30 07:59:48;;;;;;;71.57;28.05;;;;;;;0.75;100.00;99767.56;4981934;28;20093;-63
2020/12/30 08:02:17;;;;;;;72.03;27.05;;;;;;;0.73;100.00;99774.78;4979807;28;20500;-65
2020/12/30 08:07:11;;;;;;;74.30;29.20;;;;;;;0.78;100.00;99780.59;4989253;23;20039;-65
2020/12/30 08:09:38;;;;;;;79.40;30.23;;;;;;;0.74;100.00;99787.03;4980763;28;20054;-65
2020/12/30 08:12:06;;;;;;;77.72;30.58;;;;;;;0.78;100.00;99788.53;4981511;28;20118;-65
2020/12/30 08:14:33;;;;;;;79.95;29.98;;;;;;;0.81;100.00;99797.16;4981959;28;20046;-65
2020/12/30 08:17:01;;;;;;;75.28;28.60;;;;;;;0.82;100.00;99795.34;4981869;28;20046;-63
2020/12/30 08:22:20;;;;;;;79.03;29.17;;;;;;;0.91;100.00;99794.75;4985894;23;20129;-64
2020/12/30 08:24:49;;;;;;;83.32;32.10;;;;;;;0.92;100.00;99787.66;4976441;28;20050;-65
2020/12/30 08:27:17;;;;;;;90.75;31.30;;;;;;;0.96;100.00;99795.31;4981583;28;20060;-66
2020/12/30 08:29:44;;;;;;;92.40;32.75;;;;;;;1.04;100.00;99798.28;4981321;28;20455;-65
2020/12/30 08:34:42;;;;;;;78.75;29.90;;;;;;;1.08;100.00;99811.34;4988719;23;20051;-65
2020/12/30 08:37:14;;;;;;;76.45;30.30;;;;;;;1.15;100.00;99812.63;4980299;28;20415;-65
2020/12/30 08:39:44;;;;;;;83.20;30.95;;;;;;;1.22;100.00;99824.50;4982651;28;20129;-65
2020/12/30 08:43:04;;;;;;;83.82;32.38;;;;;;;1.32;100.00;99815.00;4979854;28;20208;-65
2020/12/30 08:45:32;;;;;;;92.97;30.98;;;;;;;1.43;100.00;99816.94;4951858;28;20049;-65
2020/12/30 08:48:06;;;;;;;80.80;30.17;;;;;;;1.47;100.00;99817.56;4980365;28;20050;-65
2020/12/30 08:50:33;;;;;;;85.68;32.63;;;;;;;1.52;100.00;99820.78;4982800;28;20039;-65
2020/12/30 08:53:01;;;;;;;86.97;31.50;;;;;;;1.54;100.00;99814.41;4982051;28;20454;-63
2020/12/30 08:55:28;;;;;;;81.00;33.30;;;;;;;1.59;100.00;99822.06;4980546;28;20047;-64
2020/12/30 08:57:54;;;;;;;76.93;28.52;;;;;;;1.60;100.00;99823.75;4982695;28;20051;-64
2020/12/30 09:00:21;;;;;;;83.28;30.90;;;;;;;1.65;100.00;99831.38;4982441;28;20475;-63
2020/12/30 09:02:48;;;;;;;80.97;31.27;;;;;;;1.71;100.00;99837.13;4980111;28;20046;-63
2020/12/30 09:05:25;;;;;;;76.72;30.15;;;;;;;1.76;100.00;99834.16;4981621;28;20082;-63
2020/12/30 09:07:51;;;;;;;72.78;28.30;;;;;;;1.75;100.00;99827.16;4981026;28;20047;-63
2020/12/30 09:10:17;;;;;;;64.72;27.50;;;;;;;1.77;100.00;99841.19;4979649;28;20077;-63
2020/12/30 09:12:44;;;;;;;76.82;29.08;;;;;;;1.83;100.00;99839.91;4982005;28;20054;-63
2020/12/30 09:15:10;;;;;;;72.75;28.95;;;;;;;1.86;100.00;99837.03;4982165;28;20105;-63
2020/12/30 09:17:36;;;;;;;69.25;27.85;;;;;;;1.98;100.00;99838.84;4981664;28;20554;-65
2020/12/30 09:20:10;;;;;;;63.08;27.42;;;;;;;1.99;100.00;99832.59;4982129;28;20100;-66
2020/12/30 09:22:37;;;;;;;65.90;27.00;;;;;;;1.96;100.00;99834.59;4981155;28;20100;-66
2020/12/30 09:25:04;;;;;;;66.22;26.20;;;;;;;2.04;100.00;99837.56;4981421;28;20046;-66
2020/12/30 09:27:33;;;;;;;65.47;26.42;;;;;;;2.03;100.00;99836.72;4980280;28;20058;-64
2020/12/30 09:30:08;;;;;;;59.67;25.98;;;;;;;2.07;100.00;99840.00;4976591;28;20055;-64
2020/12/30 09:32:34;;;;;;;54.20;24.48;;;;;;;2.16;100.00;99842.00;4961567;28;20054;-64
2020/12/30 09:35:01;;;;;;;62.47;25.58;;;;;;;2.23;100.00;99853.91;4980291;28;20046;-63
2020/12/30 09:37:27;;;;;;;58.35;25.13;;;;;;;2.29;100.00;99852.63;4979719;28;20133;-63
2020/12/30 09:40:08;;;;;;;54.10;24.10;;;;;;;2.40;100.00;99858.03;4980128;28;20741;-63
2020/12/30 09:42:34;;;;;;;55.92;25.08;;;;;;;2.46;100.00;99864.72;4979582;28;20098;-63
2020/12/30 09:45:00;;;;;;;48.13;21.55;;;;;;;2.58;100.00;99866.50;4980888;28;20105;-63
2020/12/30 09:47:27;;;;;;;49.30;22.30;;;;;;;2.64;100.00;99867.88;4980332;28;20053;-64
2020/12/30 09:49:53;;;;;;;44.90;20.17;;;;;;;2.75;100.00;99869.75;4979908;28;20050;-65
2020/12/30 09:52:19;;;;;;;40.53;19.25;;;;;;;2.77;100.00;99874.00;4980000;28;20054;-64
2020/12/30 09:54:45;;;;;;;37.10;18.70;;;;;;;2.87;100.00;99865.34;4978614;28;20102;-64
2020/12/30 09:57:11;;;;;;;39.67;18.27;;;;;;;2.96;100.00;99867.38;4980474;28;20073;-64
2020/12/30 09:59:37;;;;;;;31.27;15.73;;;;;;;3.14;100.00;99875.81;4979989;28;20058;-64
2020/12/30 10:02:03;;;;;;;30.77;15.52;;;;;;;3.26;100.00;99874.06;4976997;28;20097;-64
2020/12/30 10:04:30;;;;;;;35.85;16.25;;;;;;;3.33;100.00;99880.63;4980497;28;20046;-65
2020/12/30 10:06:56;;;;;;;32.25;15.65;;;;;;;3.46;100.00;99870.75;4979392;28;20054;-66
2020/12/30 10:09:22;;;;;;;20.02;11.77;;;;;;;3.47;100.00;99877.75;4980280;28;20053;-64
2020/12/30 10:14:14;;;;;;;23.05;11.93;;;;;;;3.59;100.00;99880.47;4804570;23;20093;-65
2020/12/30 10:16:40;;;;;;;19.45;11.70;;;;;;;3.68;99.97;99882.41;4982488;28;20096;-65
2020/12/30 10:19:06;;;;;;;18.33;10.38;;;;;;;3.71;100.00;99882.22;4981622;28;20487;-65
2020/12/30 10:21:33;;;;;;;20.45;10.25;;;;;;;3.67;99.98;99884.25;4982380;28;20078;-64
2020/12/30 10:23:59;;;;;;;20.80;10.00;;;;;;;3.68;99.42;99885.06;4981240;28;20633;-64
2020/12/30 10:26:25;;;;;;;17.17;9.88;;;;;;;3.67;98.99;99878.09;4978744;28;20046;-64
2020/12/30 10:28:51;;;;;;;16.35;8.00;;;;;;;3.66;99.30;99889.69;4982874;28;20055;-64
2020/12/30 10:31:17;;;;;;;13.77;7.68;;;;;;;3.64;98.77;99886.31;4980807;28;20073;-64
2020/12/30 10:33:43;;;;;;;14.20;6.57;;;;;;;3.67;98.35;99883.41;4972357;28;20043;-63
2020/12/30 10:36:10;;;;;;;15.50;7.65;;;;;;;3.66;98.21;99882.53;4981741;28;20043;-64
2020/12/30 10:38:36;;;;;;;14.07;7.57;;;;;;;3.66;98.59;99879.03;4981171;28;20054;-64
2020/12/30 10:41:02;;;;;;;13.48;7.63;;;;;;;3.58;97.92;99881.41;4971042;28;20046;-64
2020/12/30 10:43:29;;;;;;;10.60;7.47;;;;;;;3.57;97.80;99885.91;4984500;28;20050;-64
2020/12/30 10:45:54;;;;;;;11.15;6.18;;;;;;;3.63;97.86;99880.09;4970193;23;20053;-65
2020/12/30 10:48:20;;;;;;;10.20;6.28;;;;;;;3.76;97.54;99877.38;4975438;28;20419;-66
2020/12/30 10:50:46;;;;;;;13.40;6.75;;;;;;;3.81;97.36;99885.88;4980269;28;20052;-66
2020/12/30 10:53:12;;;;;;;13.80;6.75;;;;;;;3.86;97.25;99886.34;4972518;28;20080;-64
2020/12/30 10:55:39;;;;;;;12.50;7.25;;;;;;;3.94;97.08;99879.59;4977428;28;20460;-66
2020/12/30 10:58:05;;;;;;;9.65;5.47;;;;;;;3.97;97.20;99879.38;4978224;28;20046;-68
2020/12/30 11:00:31;;;;;;;9.38;5.93;;;;;;;3.98;96.98;99881.06;4977790;28;20045;-65
2020/12/30 11:02:57;;;;;;;10.75;6.88;;;;;;;4.04;96.54;99892.06;4976687;28;20467;-66
2020/12/30 11:05:23;;;;;;;12.88;7.13;;;;;;;4.05;96.53;99887.63;4979283;28;20057;-67
2020/12/30 11:07:49;;;;;;;10.82;6.50;;;;;;;4.10;96.28;99893.44;4978301;28;20483;-66
2020/12/30 11:10:15;;;;;;;12.38;7.28;;;;;;;4.15;96.19;99888.59;4972926;28;20049;-66
2020/12/30 11:12:42;;;;;;;10.32;6.57;;;;;;;4.20;96.40;99897.06;4977602;28;20054;-68
2020/12/30 11:15:08;;;;;;;9.57;5.38;;;;;;;4.29;95.95;99884.03;4978730;28;20047;-67
2020/12/30 11:17:34;;;;;;;7.65;5.47;;;;;;;4.33;95.82;99888.16;4976218;28;20069;-65
2020/12/30 11:20:00;;;;;;;11.10;5.35;;;;;;;4.43;95.71;99890.91;4979446;28;20051;-65
2020/12/30 11:22:26;;;;;;;11.68;5.47;;;;;;;4.39;95.62;99891.16;4978409;28;20483;-67
2020/12/30 11:24:52;;;;;;;11.35;5.43;;;;;;;4.42;95.64;99890.09;4979311;28;20061;-67
2020/12/30 11:27:18;;;;;;;7.88;5.13;;;;;;;4.49;95.36;99882.44;4978606;28;20124;-70
2020/12/30 11:29:45;;;;;;;8.60;4.30;;;;;;;4.53;95.23;99881.22;4978459;28;20055;-70
2020/12/30 11:32:11;;;;;;;7.03;3.90;;;;;;;4.62;95.00;99887.66;4977478;28;20062;-66
2020/12/30 11:34:37;;;;;;;5.03;3.35;;;;;;;4.66;94.29;99887.28;4978058;28;20043;-66
2020/12/30 11:37:03;;;;;;;4.47;3.25;;;;;;;4.72;93.87;99885.94;4977831;28;20054;-65
2020/12/30 11:39:29;;;;;;;7.10;3.70;;;;;;;4.81;93.21;99887.88;4978843;28;20050;-66
2020/12/30 11:41:55;;;;;;;4.00;2.85;;;;;;;4.81;92.97;99879.03;4968030;28;20058;-69